Time;durP1;ratioP1;P1;durP2;ratioP2;P2;SDS_P1;SDS_P2;PMS_P1;PMS_P2;Temp;Humidity;BMP_temperature;BMP_pressure;BME280_temperature;BME280_humidity;BME280_pressure;Samples;Min_cycle;Max_cycle;Signal;HPM_P1;HPM_P2
2022/07/31 00:01:39;;;;;;;3.80;2.60;;;25.50;99.90;;;;;;6153147;23;20587;-71
2022/07/31 00:04:05;;;;;;;5.53;3.38;;;25.50;99.90;;;;;;6177993;23;20048;-71
2022/07/31 00:06:31;;;;;;;4.57;3.20;;;25.50;99.90;;;;;;6179896;23;20013;-71
2022/07/31 00:08:56;;;;;;;7.20;3.00;;;25.60;99.90;;;;;;6131595;23;20017;-70
2022/07/31 00:11:22;;;;;;;4.57;2.85;;;25.60;99.90;;;;;;6178230;23;20071;-71
2022/07/31 00:13:48;;;;;;;4.40;2.45;;;25.60;99.90;;;;;;6153035;23;20013;-70
2022/07/31 00:16:14;;;;;;;3.45;2.30;;;25.60;99.90;;;;;;6178271;23;20975;-71
2022/07/31 00:18:40;;;;;;;7.00;3.00;;;25.60;99.90;;;;;;6180152;23;20013;-71
2022/07/31 00:21:06;;;;;;;5.00;3.47;;;25.60;99.90;;;;;;6152292;23;20457;-70
2022/07/31 00:23:31;;;;;;;5.25;3.45;;;25.50;99.90;;;;;;6153218;23;20350;-70
2022/07/31 00:25:57;;;;;;;4.25;2.67;;;25.50;99.90;;;;;;6153242;23;20029;-71
2022/07/31 00:28:23;;;;;;;5.35;3.05;;;25.50;99.90;;;;;;6152784;23;20036;-71
2022/07/31 00:30:49;;;;;;;8.75;3.67;;;25.50;99.90;;;;;;6152698;23;20067;-70
2022/07/31 00:33:15;;;;;;;5.63;3.38;;;25.50;99.90;;;;;;6178570;23;20057;-71
2022/07/31 00:35:42;;;;;;;6.38;3.53;;;25.60;99.90;;;;;;6153817;23;20576;-71
2022/07/31 00:38:09;;;;;;;6.53;3.50;;;25.50;99.90;;;;;;6178559;23;20016;-70
2022/07/31 00:40:35;;;;;;;5.55;3.60;;;25.50;99.90;;;;;;6153313;23;20017;-70
2022/07/31 00:43:02;;;;;;;5.93;3.10;;;25.50;99.90;;;;;;6180160;23;20016;-71
2022/07/31 00:45:28;;;;;;;8.90;3.50;;;25.50;99.90;;;;;;6167055;23;20013;-69
2022/07/31 00:47:55;;;;;;;7.80;3.97;;;25.50;99.90;;;;;;6180100;23;20369;-70
2022/07/31 00:50:22;;;;;;;9.35;5.93;;;25.60;99.90;;;;;;6179313;23;20425;-72
2022/07/31 00:52:50;;;;;;;6.40;4.90;;;25.50;99.90;;;;;;6180159;23;20001;-71
2022/07/31 00:55:16;;;;;;;11.52;5.55;;;25.50;99.90;;;;;;6152875;23;20421;-70
2022/07/31 00:57:42;;;;;;;8.57;6.22;;;25.50;99.90;;;;;;6180570;23;20005;-70
2022/07/31 01:00:09;;;;;;;9.05;5.07;;;25.50;99.90;;;;;;6152432;23;20016;-71
2022/07/31 01:02:36;;;;;;;8.57;5.20;;;25.50;99.90;;;;;;6179416;23;20001;-71
2022/07/31 01:05:02;;;;;;;8.52;5.57;;;25.60;99.90;;;;;;6154623;23;20024;-71
2022/07/31 01:07:28;;;;;;;8.23;5.18;;;25.50;99.90;;;;;;6181553;23;20012;-70
2022/07/31 01:09:54;;;;;;;8.80;5.20;;;25.50;99.90;;;;;;6155402;23;20906;-71
2022/07/31 01:12:29;;;;;;;7.00;4.60;;;25.50;99.90;;;;;;6153942;23;20012;-70
2022/07/31 01:15:00;;;;;;;6.55;4.28;;;25.40;99.90;;;;;;6154472;23;20080;-70
2022/07/31 01:17:29;;;;;;;7.68;4.28;;;25.40;99.90;;;;;;6181415;23;20009;-71
2022/07/31 01:19:55;;;;;;;8.38;4.88;;;25.50;99.90;;;;;;6154452;23;20571;-71
2022/07/31 01:22:51;;;;;;;7.25;4.93;;;25.50;99.90;;;;;;6152299;23;20365;-70
2022/07/31 01:25:35;;;;;;;11.18;5.20;;;25.50;99.90;;;;;;6153590;23;20017;-70
2022/07/31 01:28:09;;;;;;;8.38;5.57;;;25.50;99.90;;;;;;6142600;23;20009;-71
2022/07/31 01:31:10;;;;;;;8.32;5.47;;;25.50;99.90;;;;;;6168843;23;20088;-71
2022/07/31 01:33:45;;;;;;;10.57;5.32;;;25.40;99.90;;;;;;6154086;23;20400;-69
2022/07/31 01:36:23;;;;;;;7.10;5.53;;;25.40;99.90;;;;;;6148650;23;20009;-70
2022/07/31 01:38:52;;;;;;;8.50;5.28;;;25.40;99.90;;;;;;6165049;23;20047;-70
2022/07/31 01:41:25;;;;;;;6.90;4.72;;;25.40;99.90;;;;;;6152959;23;20108;-70
2022/07/31 01:43:55;;;;;;;8.15;5.40;;;25.50;99.90;;;;;;6181747;23;20380;-70
2022/07/31 01:46:25;;;;;;;8.85;5.32;;;25.40;99.90;;;;;;6152723;23;20028;-71
2022/07/31 01:48:54;;;;;;;10.52;5.45;;;25.40;99.90;;;;;;6154703;23;20058;-70
2022/07/31 01:51:22;;;;;;;8.40;4.85;;;25.30;99.90;;;;;;6179829;23;20055;-70
2022/07/31 01:53:51;;;;;;;9.52;5.10;;;25.20;99.90;;;;;;6181358;23;20005;-70
2022/07/31 01:56:18;;;;;;;7.55;5.30;;;25.10;99.90;;;;;;6154189;23;20032;-70
2022/07/31 01:58:45;;;;;;;6.65;5.43;;;25.10;99.90;;;;;;6153865;23;20016;-70
2022/07/31 02:01:13;;;;;;;9.30;5.32;;;25.10;99.90;;;;;;6128796;23;20895;-70
2022/07/31 02:03:42;;;;;;;7.78;5.55;;;25.10;99.90;;;;;;6140419;23;20111;-70
2022/07/31 02:06:09;;;;;;;10.45;5.55;;;25.10;99.90;;;;;;6152003;23;20025;-70
2022/07/31 02:08:37;;;;;;;6.78;5.13;;;25.10;99.90;;;;;;6137180;23;20016;-70
2022/07/31 02:11:04;;;;;;;6.80;5.45;;;25.00;99.90;;;;;;6186123;23;20020;-70
2022/07/31 02:13:31;;;;;;;7.05;4.63;;;25.00;99.90;;;;;;6178710;23;20524;-70
2022/07/31 02:15:58;;;;;;;9.40;5.88;;;25.00;99.90;;;;;;6180805;23;20651;-70
2022/07/31 02:18:25;;;;;;;8.80;5.32;;;25.00;99.90;;;;;;6114522;23;20055;-71
2022/07/31 02:20:52;;;;;;;6.32;4.63;;;25.00;99.90;;;;;;6155025;23;20019;-70
2022/07/31 02:23:18;;;;;;;8.75;5.18;;;25.00;99.90;;;;;;6152893;23;20016;-70
2022/07/31 02:25:45;;;;;;;8.13;5.13;;;25.00;99.90;;;;;;6154560;23;20016;-70
2022/07/31 02:28:16;;;;;;;8.45;5.45;;;25.00;99.90;;;;;;6151380;23;20013;-70
2022/07/31 02:30:43;;;;;;;7.60;4.97;;;25.00;99.90;;;;;;6181484;23;20087;-70
2022/07/31 02:33:22;;;;;;;13.70;5.88;;;25.10;99.90;;;;;;6152577;23;20009;-69
2022/07/31 02:35:49;;;;;;;9.45;5.75;;;25.00;99.90;;;;;;6153870;23;20021;-69
2022/07/31 02:38:22;;;;;;;9.30;5.47;;;25.00;99.90;;;;;;6152385;23;20517;-70
2022/07/31 02:40:51;;;;;;;9.05;4.85;;;25.00;99.90;;;;;;6180515;23;20372;-70
2022/07/31 02:43:19;;;;;;;6.63;5.28;;;25.10;99.90;;;;;;6152566;23;20013;-70
2022/07/31 02:45:46;;;;;;;10.07;5.45;;;25.10;99.90;;;;;;6181126;23;20017;-70
2022/07/31 02:48:11;;;;;;;10.05;5.80;;;25.00;99.90;;;;;;6179757;23;20024;-70
2022/07/31 02:50:38;;;;;;;10.63;5.65;;;25.00;99.90;;;;;;6153875;23;20025;-71
2022/07/31 02:53:05;;;;;;;7.18;5.10;;;25.00;99.90;;;;;;6165834;23;20015;-70
2022/07/31 02:55:32;;;;;;;7.85;4.85;;;25.10;99.90;;;;;;6131127;23;20369;-70
2022/07/31 02:57:57;;;;;;;7.40;4.72;;;25.10;99.90;;;;;;6154379;23;20440;-71
2022/07/31 03:00:25;;;;;;;7.78;4.60;;;25.00;99.90;;;;;;6150495;23;20009;-70
2022/07/31 03:02:55;;;;;;;7.93;5.10;;;25.00;99.90;;;;;;6180589;23;20009;-69
2022/07/31 03:05:22;;;;;;;5.85;4.93;;;24.90;99.90;;;;;;6178778;23;20025;-70
2022/07/31 03:07:48;;;;;;;8.52;5.03;;;24.90;99.90;;;;;;6129183;23;20017;-70
2022/07/31 03:10:13;;;;;;;7.50;5.07;;;24.80;99.90;;;;;;6151387;23;20017;-69
2022/07/31 03:12:42;;;;;;;9.27;4.97;;;24.80;99.90;;;;;;6152774;23;20005;-70
2022/07/31 03:15:12;;;;;;;8.60;5.43;;;24.70;99.90;;;;;;6150760;23;20067;-70
2022/07/31 03:17:40;;;;;;;8.07;5.10;;;24.70;99.90;;;;;;6179247;23;20492;-70
2022/07/31 03:20:07;;;;;;;11.35;5.55;;;24.70;99.90;;;;;;6179343;23;20016;-70
2022/07/31 03:22:33;;;;;;;7.63;4.75;;;24.70;99.90;;;;;;6153410;23;20012;-70
2022/07/31 03:25:01;;;;;;;9.35;4.75;;;24.70;99.90;;;;;;6130748;23;20083;-70
2022/07/31 03:27:27;;;;;;;9.23;5.05;;;24.70;99.90;;;;;;6203797;23;20009;-70
2022/07/31 03:29:55;;;;;;;9.80;4.97;;;24.70;99.90;;;;;;6179789;23;20503;-70
2022/07/31 03:32:21;;;;;;;9.27;4.68;;;24.70;99.90;;;;;;6178060;23;20013;-70
2022/07/31 03:34:47;;;;;;;6.25;4.68;;;24.70;99.90;;;;;;6180894;23;20035;-71
2022/07/31 03:37:13;;;;;;;8.57;4.80;;;24.70;99.90;;;;;;6178558;23;20006;-70
2022/07/31 03:39:40;;;;;;;12.23;5.05;;;24.70;99.90;;;;;;6154363;23;20008;-71
2022/07/31 03:42:09;;;;;;;9.65;5.47;;;24.70;99.90;;;;;;6151736;23;20009;-71
2022/07/31 03:44:36;;;;;;;8.25;5.60;;;24.80;99.90;;;;;;6180085;23;20076;-70
2022/07/31 03:47:04;;;;;;;9.07;5.38;;;24.80;99.90;;;;;;6152181;23;20064;-71
2022/07/31 03:49:31;;;;;;;7.78;5.38;;;24.80;99.90;;;;;;6153204;23;20013;-72
2022/07/31 03:51:58;;;;;;;9.70;5.65;;;24.80;99.90;;;;;;6152987;23;20095;-71
2022/07/31 03:54:24;;;;;;;8.38;5.40;;;24.80;99.90;;;;;;6179177;23;20455;-70
2022/07/31 03:56:52;;;;;;;7.93;5.10;;;24.80;99.90;;;;;;6179223;23;20024;-70
2022/07/31 03:59:19;;;;;;;8.48;5.55;;;24.80;99.90;;;;;;6151352;23;20148;-70
2022/07/31 04:01:46;;;;;;;9.55;5.97;;;24.90;99.90;;;;;;6153929;23;20603;-70
2022/07/31 04:04:12;;;;;;;10.20;5.70;;;24.90;99.90;;;;;;6178325;23;20152;-70
2022/07/31 04:06:39;;;;;;;9.55;5.93;;;24.90;99.90;;;;;;6179548;23;20068;-70
2022/07/31 04:09:05;;;;;;;8.40;5.68;;;24.80;99.90;;;;;;6151338;23;20013;-70
2022/07/31 04:11:31;;;;;;;10.60;6.22;;;24.90;99.90;;;;;;6180501;23;20021;-70
2022/07/31 04:13:57;;;;;;;11.88;6.00;;;24.90;99.90;;;;;;6179104;23;20068;-69
2022/07/31 04:16:23;;;;;;;11.60;6.13;;;24.90;99.90;;;;;;6178995;23;20388;-70
2022/07/31 04:18:48;;;;;;;10.85;6.40;;;24.90;99.90;;;;;;6178923;23;20039;-70
2022/07/31 04:21:14;;;;;;;8.40;6.40;;;24.90;99.90;;;;;;6152346;23;20028;-70
2022/07/31 04:23:40;;;;;;;8.40;5.93;;;24.90;99.90;;;;;;6179554;23;20461;-70
2022/07/31 04:26:06;;;;;;;10.93;6.43;;;24.90;99.90;;;;;;6178373;23;20025;-70
2022/07/31 04:28:32;;;;;;;9.10;6.03;;;25.00;99.90;;;;;;6179756;23;20017;-69
2022/07/31 04:30:58;;;;;;;10.18;6.38;;;25.00;99.90;;;;;;6152875;23;20071;-70
2022/07/31 04:33:24;;;;;;;10.90;6.03;;;25.00;99.90;;;;;;6130174;23;20013;-69
2022/07/31 04:35:51;;;;;;;10.45;6.47;;;25.00;99.90;;;;;;6179649;23;20330;-71
2022/07/31 04:38:17;;;;;;;14.85;7.30;;;25.00;99.90;;;;;;6178851;23;20142;-70
2022/07/31 04:40:43;;;;;;;11.63;6.45;;;25.00;99.90;;;;;;6180629;23;20017;-70
2022/07/31 04:43:09;;;;;;;8.15;5.85;;;25.00;99.90;;;;;;6179585;23;20461;-70
2022/07/31 04:45:34;;;;;;;10.15;6.40;;;25.00;99.90;;;;;;6154709;23;20121;-71
2022/07/31 04:48:00;;;;;;;9.38;6.18;;;24.90;99.90;;;;;;6181309;23;20095;-69
2022/07/31 04:50:26;;;;;;;12.45;6.45;;;24.90;99.90;;;;;;6180188;23;20012;-70
2022/07/31 04:52:52;;;;;;;11.52;6.28;;;24.80;99.90;;;;;;6181523;23;20009;-70
2022/07/31 04:55:18;;;;;;;14.07;6.53;;;24.90;99.90;;;;;;6153740;23;20304;-70
2022/07/31 04:57:44;;;;;;;9.95;6.10;;;24.80;99.90;;;;;;6130257;23;20064;-70
2022/07/31 05:00:10;;;;;;;11.15;6.40;;;24.80;99.90;;;;;;6153011;23;20021;-70
2022/07/31 05:02:36;;;;;;;9.00;6.47;;;24.80;99.90;;;;;;6181759;23;20013;-69
2022/07/31 05:05:03;;;;;;;8.40;5.88;;;24.80;99.90;;;;;;6179331;23;20027;-70
2022/07/31 05:07:30;;;;;;;11.05;5.93;;;24.80;99.90;;;;;;6181773;23;20044;-70
2022/07/31 05:09:57;;;;;;;9.48;5.72;;;24.80;99.90;;;;;;6154677;23;20044;-70
2022/07/31 05:12:23;;;;;;;7.57;5.15;;;24.80;99.90;;;;;;6180403;23;20063;-69
2022/07/31 05:14:49;;;;;;;8.30;5.57;;;24.80;99.90;;;;;;6155084;23;20432;-70
2022/07/31 05:17:16;;;;;;;10.25;5.47;;;24.80;99.90;;;;;;6180112;23;20013;-70
2022/07/31 05:19:41;;;;;;;8.77;5.50;;;24.80;99.90;;;;;;6181432;23;20330;-70
2022/07/31 05:22:07;;;;;;;9.07;5.93;;;24.80;99.90;;;;;;6179671;23;20025;-71
2022/07/31 05:24:33;;;;;;;8.48;5.88;;;24.90;99.90;;;;;;6181022;23;20016;-69
2022/07/31 05:27:00;;;;;;;8.70;5.95;;;24.90;99.90;;;;;;6154430;23;20398;-70
2022/07/31 05:29:26;;;;;;;9.30;5.45;;;25.00;99.90;;;;;;6129185;23;20013;-69
2022/07/31 05:31:52;;;;;;;7.43;4.88;;;25.10;99.90;;;;;;6180493;23;20017;-70
2022/07/31 05:34:18;;;;;;;7.32;4.70;;;25.10;99.90;;;;;;6153447;23;20477;-70
2022/07/31 05:36:44;;;;;;;8.00;4.70;;;25.10;99.90;;;;;;6154730;23;20038;-71
2022/07/31 05:39:11;;;;;;;8.80;4.22;;;25.10;99.90;;;;;;6180555;23;20451;-70
2022/07/31 05:41:37;;;;;;;7.13;4.65;;;25.20;99.90;;;;;;6154939;23;20024;-70
2022/07/31 05:44:03;;;;;;;7.78;4.40;;;25.30;99.90;;;;;;6165258;23;20092;-69
2022/07/31 05:46:29;;;;;;;7.88;3.80;;;25.30;99.90;;;;;;6132593;23;20020;-70
2022/07/31 05:48:55;;;;;;;9.70;4.55;;;25.30;99.90;;;;;;6180480;23;20573;-70
2022/07/31 05:51:21;;;;;;;7.25;4.18;;;25.30;99.90;;;;;;6178869;23;20068;-70
2022/07/31 05:53:48;;;;;;;6.40;4.10;;;25.40;99.90;;;;;;6180994;23;20100;-70
2022/07/31 05:56:14;;;;;;;7.40;3.88;;;25.50;99.90;;;;;;6178924;23;20151;-70
2022/07/31 05:58:40;;;;;;;5.43;3.80;;;25.50;99.90;;;;;;6181184;23;20032;-71
2022/07/31 06:01:05;;;;;;;7.57;3.80;;;25.60;99.90;;;;;;6180457;23;20088;-70
2022/07/31 06:03:34;;;;;;;8.40;4.43;;;25.60;99.90;;;;;;6180400;23;20017;-69
2022/07/31 06:06:02;;;;;;;5.78;3.83;;;25.60;99.90;;;;;;6181050;23;20093;-70
2022/07/31 06:08:28;;;;;;;6.15;3.80;;;25.70;99.90;;;;;;6152586;23;20005;-70
2022/07/31 06:10:54;;;;;;;4.63;3.58;;;25.70;99.90;;;;;;6165905;23;20047;-70
2022/07/31 06:13:24;;;;;;;5.72;3.92;;;25.80;99.90;;;;;;6184409;23;20012;-69
2022/07/31 06:15:49;;;;;;;6.57;3.60;;;25.90;99.90;;;;;;6161716;23;20009;-71
2022/07/31 06:18:15;;;;;;;8.73;3.75;;;26.00;99.90;;;;;;6191902;23;20013;-70
2022/07/31 06:20:41;;;;;;;8.02;3.65;;;26.00;99.90;;;;;;6163660;23;20468;-69
2022/07/31 06:23:07;;;;;;;7.15;3.38;;;26.10;99.90;;;;;;6179867;23;20012;-71
2022/07/31 06:25:32;;;;;;;4.78;3.38;;;26.10;99.90;;;;;;6154534;23;20307;-70
2022/07/31 06:27:58;;;;;;;9.63;3.50;;;26.20;99.90;;;;;;6138895;23;20009;-69
2022/07/31 06:30:24;;;;;;;4.85;3.20;;;26.30;99.90;;;;;;6179258;23;20036;-71
2022/07/31 06:32:50;;;;;;;5.55;3.20;;;26.30;99.90;;;;;;6180124;23;20075;-71
2022/07/31 06:35:16;;;;;;;7.00;3.50;;;26.40;99.90;;;;;;6152171;23;20396;-72
2022/07/31 06:37:42;;;;;;;5.82;3.40;;;26.50;99.90;;;;;;6152921;23;20024;-71
2022/07/31 06:40:08;;;;;;;5.88;3.60;;;26.50;99.90;;;;;;6178156;23;20040;-72
2022/07/31 06:42:33;;;;;;;7.10;3.45;;;26.50;99.90;;;;;;6179080;23;20013;-72
2022/07/31 06:44:59;;;;;;;8.27;3.25;;;26.60;99.90;;;;;;6179976;23;20013;-72
2022/07/31 06:47:25;;;;;;;5.55;3.22;;;26.60;99.90;;;;;;6178839;23;20334;-73
2022/07/31 06:49:52;;;;;;;5.45;3.45;;;26.70;99.90;;;;;;6179689;23;20044;-73
2022/07/31 06:52:18;;;;;;;6.50;3.95;;;26.70;99.90;;;;;;6151338;23;20029;-72
2022/07/31 06:54:44;;;;;;;6.50;3.40;;;26.90;99.90;;;;;;6158088;23;20096;-72
2022/07/31 06:57:11;;;;;;;6.97;3.20;;;26.90;99.90;;;;;;6153360;23;20017;-72
2022/07/31 06:59:37;;;;;;;6.32;3.45;;;26.90;99.90;;;;;;6181523;23;20013;-71
2022/07/31 07:02:03;;;;;;;6.93;3.50;;;27.00;99.90;;;;;;6152839;23;20332;-72
2022/07/31 07:04:29;;;;;;;4.45;3.33;;;27.10;99.90;;;;;;6180437;23;20013;-72
2022/07/31 07:06:55;;;;;;;6.40;3.42;;;27.10;99.90;;;;;;6181575;23;20024;-71
2022/07/31 07:09:21;;;;;;;6.25;3.22;;;27.20;99.90;;;;;;6179221;23;20430;-72
2022/07/31 07:11:47;;;;;;;4.95;3.28;;;27.30;99.90;;;;;;6154705;23;20032;-72
2022/07/31 07:14:13;;;;;;;8.75;3.63;;;27.30;99.90;;;;;;6179822;23;20009;-72
2022/07/31 07:16:39;;;;;;;4.90;3.13;;;27.40;99.90;;;;;;6180667;23;20033;-72
2022/07/31 07:19:05;;;;;;;5.85;3.25;;;27.50;99.90;;;;;;6179240;23;20040;-72
2022/07/31 07:21:31;;;;;;;7.07;3.10;;;27.50;99.90;;;;;;6153541;23;20058;-71
2022/07/31 07:23:57;;;;;;;9.63;3.85;;;27.50;99.90;;;;;;6153207;23;20345;-71
2022/07/31 07:26:23;;;;;;;5.57;3.08;;;27.50;99.90;;;;;;6179739;23;20024;-72
2022/07/31 07:28:49;;;;;;;4.43;3.10;;;27.60;99.90;;;;;;6180510;23;20017;-73
2022/07/31 07:31:15;;;;;;;6.70;3.67;;;27.70;99.90;;;;;;6179968;23;20079;-72
2022/07/31 07:33:41;;;;;;;5.20;3.28;;;27.90;99.90;;;;;;6153678;23;20016;-71
2022/07/31 07:36:06;;;;;;;6.72;3.13;;;28.00;99.90;;;;;;6179400;23;20039;-72
2022/07/31 07:38:32;;;;;;;6.47;3.50;;;28.10;99.90;;;;;;6153823;23;20044;-73
2022/07/31 07:40:58;;;;;;;4.90;3.50;;;28.10;99.90;;;;;;6153982;23;20009;-72
2022/07/31 07:43:24;;;;;;;6.38;3.40;;;28.20;99.90;;;;;;6178824;23;20012;-71
2022/07/31 07:45:50;;;;;;;7.85;3.58;;;28.30;99.90;;;;;;6180514;23;20037;-71
2022/07/31 07:48:15;;;;;;;7.00;3.38;;;28.30;99.90;;;;;;6164410;23;20037;-72
2022/07/31 07:50:41;;;;;;;5.45;3.60;;;28.30;99.90;;;;;;6180299;23;20041;-71
2022/07/31 07:53:07;;;;;;;5.53;3.33;;;28.40;99.90;;;;;;6180264;23;20009;-73
2022/07/31 07:55:33;;;;;;;9.32;3.50;;;28.50;99.90;;;;;;6180711;23;20029;-72
2022/07/31 07:57:58;;;;;;;7.63;3.67;;;28.50;99.90;;;;;;6180558;23;20013;-72
2022/07/31 08:00:24;;;;;;;5.65;3.83;;;28.70;99.90;;;;;;6152543;23;20426;-71
2022/07/31 08:02:50;;;;;;;8.75;4.38;;;28.80;99.90;;;;;;6153349;23;20079;-72
2022/07/31 08:05:16;;;;;;;4.95;3.20;;;28.80;99.90;;;;;;6153309;23;20186;-74
2022/07/31 08:07:43;;;;;;;5.13;4.00;;;28.80;99.90;;;;;;6155469;23;20017;-71
2022/07/31 08:10:10;;;;;;;7.80;3.88;;;29.00;99.90;;;;;;6153387;23;20592;-72
2022/07/31 08:12:35;;;;;;;9.30;4.03;;;29.10;99.90;;;;;;6154806;23;20009;-70
2022/07/31 08:15:02;;;;;;;7.65;3.88;;;29.20;99.90;;;;;;6182208;23;20080;-72
2022/07/31 08:17:28;;;;;;;8.55;3.72;;;29.30;99.90;;;;;;6156707;23;20009;-72
2022/07/31 08:19:54;;;;;;;8.95;3.50;;;29.30;99.90;;;;;;6156665;23;20016;-71
2022/07/31 08:22:20;;;;;;;5.75;3.70;;;29.50;99.90;;;;;;6155680;23;20077;-72
2022/07/31 08:24:46;;;;;;;7.07;3.75;;;29.50;99.90;;;;;;6134682;23;20445;-72
2022/07/31 08:27:23;;;;;;;6.45;3.92;;;29.60;99.90;;;;;;6182077;23;20015;-71
2022/07/31 08:29:56;;;;;;;4.97;3.30;;;29.60;99.90;;;;;;6166744;23;20059;-73
2022/07/31 08:32:24;;;;;;;5.88;3.58;;;29.50;99.90;;;;;;6155133;23;20065;-72
2022/07/31 08:34:50;;;;;;;5.68;3.60;;;29.60;99.90;;;;;;6183051;23;20006;-73
2022/07/31 08:37:18;;;;;;;7.22;3.60;;;29.70;99.90;;;;;;6154213;23;20042;-73
2022/07/31 08:39:48;;;;;;;7.20;3.40;;;29.60;99.90;;;;;;6130774;23;20420;-71
2022/07/31 08:42:14;;;;;;;5.45;3.70;;;29.80;99.90;;;;;;6155005;23;20121;-71
2022/07/31 08:44:42;;;;;;;6.45;3.30;;;30.90;99.90;;;;;;6182565;23;20041;-72
2022/07/31 08:47:10;;;;;;;6.95;3.60;;;32.30;99.90;;;;;;6153997;23;20100;-72
2022/07/31 08:49:47;;;;;;;5.80;2.75;;;33.50;99.90;;;;;;6182267;23;20021;-72
2022/07/31 08:52:18;;;;;;;6.68;3.30;;;34.40;99.90;;;;;;6181058;23;20017;-72
2022/07/31 08:54:45;;;;;;;;;;;35.10;99.40;;;;;;6155977;23;20071;-71
2022/07/31 08:57:11;;;;;;;5.53;3.00;;;35.30;98.40;;;;;;6180535;23;19911;-72
2022/07/31 08:59:40;;;;;;;5.55;3.40;;;35.40;97.70;;;;;;6181904;23;20005;-72
2022/07/31 09:02:05;;;;;;;7.78;3.25;;;35.70;97.70;;;;;;6179550;23;20085;-71
2022/07/31 09:04:31;;;;;;;7.07;2.90;;;35.90;97.10;;;;;;6181753;23;20048;-72
2022/07/31 09:06:59;;;;;;;3.45;2.38;;;35.50;97.10;;;;;;6182595;23;20019;-72
2022/07/31 09:09:26;;;;;;;5.15;2.33;;;34.90;95.90;;;;;;6125028;23;20023;-72
2022/07/31 09:11:53;;;;;;;5.97;2.13;;;35.20;95.80;;;;;;6130553;23;20023;-72
2022/07/31 09:14:33;;;;;;;4.90;2.45;;;35.30;95.60;;;;;;6153678;23;20027;-72
2022/07/31 09:17:00;;;;;;;3.67;2.00;;;35.70;95.10;;;;;;6155143;23;20013;-73
2022/07/31 09:19:44;;;;;;;4.43;2.20;;;36.00;94.50;;;;;;6180264;23;20009;-71
2022/07/31 09:22:24;;;;;;;3.80;2.05;;;34.20;94.20;;;;;;6153790;23;20021;-73
2022/07/31 09:24:50;;;;;;;5.27;2.30;;;34.30;95.60;;;;;;6182060;23;20647;-73
2022/07/31 09:27:16;;;;;;;6.28;2.90;;;35.80;95.00;;;;;;6153169;23;20492;-73
2022/07/31 09:29:44;;;;;;;5.38;3.17;;;36.80;94.50;;;;;;6180676;23;20528;-74
2022/07/31 09:32:18;;;;;;;6.15;3.40;;;37.70;94.10;;;;;;6180309;23;20365;-73
2022/07/31 09:34:45;;;;;;;4.50;3.10;;;37.10;94.10;;;;;;6154752;23;20417;-73
2022/07/31 09:37:13;;;;;;;8.13;3.67;;;36.40;94.70;;;;;;6153410;23;20429;-72
2022/07/31 09:39:40;;;;;;;5.60;3.10;;;36.90;95.00;;;;;;6181271;23;20011;-70
2022/07/31 09:42:06;;;;;;;5.00;3.08;;;36.20;95.40;;;;;;6153165;23;20106;-71
2022/07/31 09:44:40;;;;;;;4.43;2.40;;;36.70;95.20;;;;;;6180569;23;20017;-71
2022/07/31 09:47:18;;;;;;;4.30;2.25;;;36.50;93.40;;;;;;6153499;23;20330;-71
2022/07/31 09:49:53;;;;;;;4.30;2.20;;;36.20;93.50;;;;;;6153805;23;20068;-71
2022/07/31 09:52:19;;;;;;;4.95;2.80;;;37.10;93.30;;;;;;6128433;23;20456;-72
2022/07/31 09:54:46;;;;;;;3.00;2.10;;;36.50;93.70;;;;;;6180422;23;20008;-71
2022/07/31 09:57:13;;;;;;;4.15;2.17;;;36.40;93.70;;;;;;6128667;23;20006;-70
2022/07/31 09:59:39;;;;;;;6.50;2.30;;;36.60;93.10;;;;;;6180555;23;20013;-71
2022/07/31 10:02:07;;;;;;;3.88;2.30;;;36.40;92.70;;;;;;6152176;23;20020;-70
2022/07/31 10:04:36;;;;;;;5.75;2.45;;;35.90;93.10;;;;;;6180373;23;20079;-71
2022/07/31 10:07:02;;;;;;;3.38;2.20;;;36.50;93.20;;;;;;6153165;23;20033;-71
2022/07/31 10:09:29;;;;;;;5.10;2.65;;;36.50;93.00;;;;;;6152494;23;20033;-70
2022/07/31 10:11:57;;;;;;;3.38;2.30;;;36.20;93.20;;;;;;6180423;23;20013;-71
2022/07/31 10:14:29;;;;;;;7.60;2.92;;;36.40;93.60;;;;;;6179189;23;20475;-70
2022/07/31 10:16:58;;;;;;;6.30;2.65;;;36.60;93.30;;;;;;6152919;23;20032;-70
2022/07/31 10:19:30;;;;;;;5.50;2.20;;;36.40;93.40;;;;;;6152348;23;20025;-71
2022/07/31 10:22:00;;;;;;;4.97;2.28;;;36.50;92.70;;;;;;6129568;23;20017;-70
2022/07/31 10:24:30;;;;;;;3.63;2.40;;;36.00;93.30;;;;;;6152854;23;20012;-71
2022/07/31 10:26:57;;;;;;;3.53;1.80;;;36.60;93.10;;;;;;6130013;23;20013;-71
2022/07/31 10:29:25;;;;;;;4.47;2.40;;;36.20;92.20;;;;;;6152250;23;20013;-71
2022/07/31 10:31:51;;;;;;;5.28;2.10;;;36.90;92.60;;;;;;6152932;23;20071;-71
2022/07/31 10:34:17;;;;;;;6.85;2.00;;;36.10;92.30;;;;;;6177869;23;20039;-70
2022/07/31 10:36:47;;;;;;;4.22;2.00;;;35.80;91.70;;;;;;6153301;23;20020;-70
2022/07/31 10:39:40;;;;;;;3.93;2.07;;;35.80;91.70;;;;;;6142253;23;20044;-71
2022/07/31 10:42:28;;;;;;;6.45;2.10;;;35.70;91.70;;;;;;6179383;23;20342;-72
2022/07/31 10:45:04;;;;;;;3.35;2.13;;;35.60;92.40;;;;;;6179909;23;20009;-71
2022/07/31 10:47:29;;;;;;;5.43;2.25;;;34.90;93.10;;;;;;6179352;23;20044;-71
2022/07/31 10:49:55;;;;;;;2.88;1.60;;;35.20;93.10;;;;;;6179505;23;20009;-70
2022/07/31 10:52:35;;;;;;;3.50;1.90;;;34.80;93.00;;;;;;6151171;23;20024;-70
2022/07/31 10:55:13;;;;;;;4.47;1.73;;;33.60;92.80;;;;;;6180177;23;20405;-71
2022/07/31 10:57:39;;;;;;;3.67;1.90;;;33.80;92.70;;;;;;6178386;23;20485;-70
2022/07/31 11:00:17;;;;;;;4.22;1.58;;;34.10;92.50;;;;;;6150681;23;20505;-70
2022/07/31 11:02:43;;;;;;;3.38;1.85;;;34.30;92.00;;;;;;6179419;23;20092;-71
2022/07/31 11:05:22;;;;;;;5.50;1.80;;;34.20;92.10;;;;;;6163646;23;20017;-70
2022/07/31 11:08:00;;;;;;;4.15;1.30;;;33.10;93.60;;;;;;6178315;23;20083;-70
2022/07/31 11:10:26;;;;;;;4.28;1.85;;;33.50;92.70;;;;;;6153028;23;20057;-71
2022/07/31 11:13:00;;;;;;;5.15;1.70;;;33.50;91.90;;;;;;6154369;23;20013;-71
2022/07/31 11:15:27;;;;;;;3.10;1.77;;;33.50;92.90;;;;;;6151632;23;20009;-70
2022/07/31 11:17:53;;;;;;;2.30;1.70;;;33.70;93.10;;;;;;6127678;23;20013;-70
2022/07/31 11:20:24;;;;;;;5.97;1.80;;;33.00;94.10;;;;;;6153057;23;20345;-71
2022/07/31 11:22:55;;;;;;;6.18;2.10;;;32.50;94.80;;;;;;6156835;23;20013;-71
2022/07/31 11:25:22;;;;;;;4.20;2.10;;;33.20;94.40;;;;;;6180582;23;20337;-70
2022/07/31 11:27:48;;;;;;;4.25;2.08;;;32.90;94.40;;;;;;6153301;23;20024;-71
2022/07/31 11:30:14;;;;;;;3.67;2.10;;;33.70;93.90;;;;;;6150866;23;20100;-71
2022/07/31 11:32:50;;;;;;;5.53;2.35;;;33.20;93.80;;;;;;6179517;23;20139;-71
2022/07/31 11:35:30;;;;;;;3.38;2.03;;;33.10;94.00;;;;;;6151159;23;20426;-71
2022/07/31 11:37:57;;;;;;;4.47;2.30;;;33.50;93.60;;;;;;6179219;23;20087;-70
2022/07/31 11:40:23;;;;;;;5.05;1.80;;;33.70;93.40;;;;;;6151658;23;20016;-71
2022/07/31 11:42:49;;;;;;;3.08;1.85;;;33.90;93.10;;;;;;6129079;23;20036;-72
2022/07/31 11:45:16;;;;;;;4.22;2.13;;;34.30;94.00;;;;;;6178014;23;20467;-70
2022/07/31 11:47:44;;;;;;;5.13;2.15;;;35.00;93.10;;;;;;6179650;23;20043;-71
2022/07/31 11:50:11;;;;;;;4.93;2.15;;;33.80;93.40;;;;;;6150968;23;20095;-70
2022/07/31 11:52:42;;;;;;;3.40;1.88;;;33.30;93.70;;;;;;6128703;23;20021;-71
2022/07/31 11:55:10;;;;;;;3.55;1.80;;;33.70;93.50;;;;;;6115932;23;20092;-70
2022/07/31 11:57:37;;;;;;;5.07;1.88;;;34.00;93.50;;;;;;6152704;23;20009;-70
2022/07/31 12:00:10;;;;;;;5.22;2.10;;;34.10;93.40;;;;;;6178255;23;20019;-71
2022/07/31 12:02:39;;;;;;;3.00;1.90;;;34.30;92.80;;;;;;6152788;23;20063;-71
2022/07/31 12:05:06;;;;;;;2.55;1.85;;;34.50;92.50;;;;;;6178122;23;20021;-72
2022/07/31 12:07:33;;;;;;;3.38;2.28;;;34.40;92.80;;;;;;6153790;23;20488;-71
2022/07/31 12:10:01;;;;;;;5.07;1.95;;;34.90;92.80;;;;;;6154041;23;20016;-71
2022/07/31 12:12:26;;;;;;;6.65;2.28;;;35.20;92.70;;;;;;6177688;23;20091;-70
2022/07/31 12:14:52;;;;;;;4.15;1.90;;;33.50;94.30;;;;;;6164642;23;20075;-71
2022/07/31 12:17:21;;;;;;;2.65;1.80;;;33.80;93.90;;;;;;6152366;23;20025;-71
2022/07/31 12:19:47;;;;;;;6.70;1.95;;;33.20;93.20;;;;;;6179633;23;20013;-72
2022/07/31 12:22:19;;;;;;;3.08;1.60;;;33.40;93.10;;;;;;6177382;23;20084;-71
2022/07/31 12:24:46;;;;;;;3.60;1.83;;;33.30;92.50;;;;;;6152745;23;20020;-70
2022/07/31 12:27:17;;;;;;;3.42;1.55;;;33.70;92.10;;;;;;6178602;23;20017;-71
2022/07/31 12:29:43;;;;;;;2.72;1.55;;;33.60;91.60;;;;;;6152665;23;20009;-71
2022/07/31 12:32:09;;;;;;;4.65;1.60;;;33.70;91.60;;;;;;6177651;23;20051;-71
2022/07/31 12:34:40;;;;;;;3.13;1.40;;;33.70;92.00;;;;;;6152499;23;20032;-71
2022/07/31 12:37:06;;;;;;;;;;;34.00;91.20;;;;;;6177635;23;20446;-72
2022/07/31 12:39:35;;;;;;;3.00;1.67;;;34.00;91.60;;;;;;6179492;23;19913;-70
2022/07/31 12:42:03;;;;;;;2.85;1.63;;;34.00;91.20;;;;;;6179885;23;20028;-72
2022/07/31 12:44:29;;;;;;;3.50;1.90;;;34.60;91.30;;;;;;6151441;23;20341;-72
2022/07/31 12:46:55;;;;;;;4.07;1.83;;;34.50;91.60;;;;;;6151051;23;20033;-72
2022/07/31 12:49:21;;;;;;;3.97;1.60;;;34.00;92.20;;;;;;6150519;23;20013;-71